<?xml version='1.0' encoding='UTF-8'?><gpx version="1.1" creator="JPX - https://github.com/jenetics/jpx" xmlns="http://www.topografix.com/GPX/1/1"><trk><trkseg><trkpt lat="45.79300704201852" lon="13.22663423327873"><ele>2.0</ele><time>2026-05-03T04:19:29.999Z</time></trkpt><trkpt lat="45.793083476673615" lon="13.226617512569318"><ele>1.9999999999999998</ele><time>2026-05-03T04:19:32.999Z</time></trkpt><trkpt lat="45.79315410896043" lon="13.226605305531956"><ele>2.0</ele><time>2026-05-03T04:19:34.999Z</time></trkpt><trkpt lat="45.79321691955774" lon="13.2265544663793"><ele>2.0</ele><time>2026-05-03T04:19:36.999Z</time></trkpt><trkpt lat="45.79323914781202" lon="13.22646878461099"><ele>1.9999999999999998</ele><time>2026-05-03T04:19:38.999Z</time></trkpt><trkpt lat="45.79325360978172" lon="13.226561649326872"><ele>2.0</ele><time>2026-05-03T04:20:03.999Z</time></trkpt><trkpt lat="45.79319044999505" lon="13.226535672527602"><ele>2.0</ele><time>2026-05-03T04:20:09.998Z</time></trkpt><trkpt lat="45.79324071906872" lon="13.226464282005686"><ele>1.8333333333333333</ele><time>2026-05-03T04:20:15Z</time></trkpt><trkpt lat="45.793285815504156" lon="13.226396086222293"><ele>1.6666666666666665</ele><time>2026-05-03T04:20:17Z</time></trkpt><trkpt lat="45.79334743696636" lon="13.226366216484546"><ele>1.5</ele><time>2026-05-03T04:20:19Z</time></trkpt><trkpt lat="45.79336620691785" lon="13.226250338169093"><ele>1.3333333333333333</ele><time>2026-05-03T04:20:21Z</time></trkpt><trkpt lat="45.7933439269969" lon="13.226117247831187"><ele>1.1666666666666665</ele><time>2026-05-03T04:20:23Z</time></trkpt><trkpt lat="45.79330823394337" lon="13.22598516053523"><ele>1.0</ele><time>2026-05-03T04:20:25Z</time></trkpt><trkpt lat="45.79326653865946" lon="13.22584459403126"><ele>1.0</ele><time>2026-05-03T04:20:27Z</time></trkpt><trkpt lat="45.793226702868004" lon="13.225702117184039"><ele>1.0</ele><time>2026-05-03T04:20:29Z</time></trkpt><trkpt lat="45.793188401968926" lon="13.225564088942946"><ele>1.0</ele><time>2026-05-03T04:20:31Z</time></trkpt><trkpt lat="45.79315253926747" lon="13.225430925531256"><ele>1.0</ele><time>2026-05-03T04:20:33Z</time></trkpt><trkpt lat="45.79311663911069" lon="13.225291887264664"><ele>1.0</ele><time>2026-05-03T04:20:35Z</time></trkpt><trkpt lat="45.79308051808715" lon="13.225158341823558"><ele>1.0</ele><time>2026-05-03T04:20:37Z</time></trkpt><trkpt lat="45.79304725791234" lon="13.225024303354004"><ele>1.0</ele><time>2026-05-03T04:20:39Z</time></trkpt><trkpt lat="45.793013106034344" lon="13.224873970701086"><ele>1.0</ele><time>2026-05-03T04:20:41Z</time></trkpt><trkpt lat="45.79297306726104" lon="13.224718653522899"><ele>1.0</ele><time>2026-05-03T04:20:43Z</time></trkpt><trkpt lat="45.792936061613176" lon="13.224560734136901"><ele>1.0</ele><time>2026-05-03T04:20:45Z</time></trkpt><trkpt lat="45.79290343365734" lon="13.224396884569313"><ele>1.0</ele><time>2026-05-03T04:20:47Z</time></trkpt><trkpt lat="45.79287583564916" lon="13.224237437189101"><ele>1.0</ele><time>2026-05-03T04:20:49Z</time></trkpt><trkpt lat="45.79284822560424" lon="13.224077232729815"><ele>1.0</ele><time>2026-05-03T04:20:51Z</time></trkpt><trkpt lat="45.79281630538951" lon="13.223920179209228"><ele>1.0</ele><time>2026-05-03T04:20:53Z</time></trkpt><trkpt lat="45.792797399378415" lon="13.223766162399363"><ele>1.0</ele><time>2026-05-03T04:20:55Z</time></trkpt><trkpt lat="45.79277132344606" lon="13.223612383293272"><ele>1.0</ele><time>2026-05-03T04:20:57Z</time></trkpt><trkpt lat="45.792744419972685" lon="13.223447594925474"><ele>1.0</ele><time>2026-05-03T04:20:59Z</time></trkpt><trkpt lat="45.7927182479655" lon="13.223289055968335"><ele>1.0</ele><time>2026-05-03T04:21:01Z</time></trkpt><trkpt lat="45.79269834469051" lon="13.223128586630757"><ele>0.5</ele><time>2026-05-03T04:21:03Z</time></trkpt><trkpt lat="45.792672456038" lon="13.222966655419867"><ele>0.0</ele><time>2026-05-03T04:21:05Z</time></trkpt><trkpt lat="45.79265307618466" lon="13.222809191484178"><ele>-0.5</ele><time>2026-05-03T04:21:07Z</time></trkpt><trkpt lat="45.79261859080648" lon="13.222644829675575"><ele>-1.0</ele><time>2026-05-03T04:21:09Z</time></trkpt><trkpt lat="45.7925958802824" lon="13.222484477560293"><ele>-1.0</ele><time>2026-05-03T04:21:11Z</time></trkpt><trkpt lat="45.79257295275949" lon="13.222332116120597"><ele>-1.0</ele><time>2026-05-03T04:21:13Z</time></trkpt><trkpt lat="45.79254169493676" lon="13.222171751324586"><ele>-1.0</ele><time>2026-05-03T04:21:15Z</time></trkpt><trkpt lat="45.79252000650123" lon="13.222003439751717"><ele>-1.0</ele><time>2026-05-03T04:21:17Z</time></trkpt><trkpt lat="45.79248951515179" lon="13.221843401973013"><ele>-1.25</ele><time>2026-05-03T04:21:19Z</time></trkpt><trkpt lat="45.79245443117601" lon="13.2216774808081"><ele>-1.5</ele><time>2026-05-03T04:21:21Z</time></trkpt><trkpt lat="45.79241720000596" lon="13.22151047391481"><ele>-1.75</ele><time>2026-05-03T04:21:23Z</time></trkpt><trkpt lat="45.79238321724853" lon="13.22135035246492"><ele>-2.0</ele><time>2026-05-03T04:21:25Z</time></trkpt><trkpt lat="45.792353081774046" lon="13.22119279803412"><ele>-2.25</ele><time>2026-05-03T04:21:27Z</time></trkpt><trkpt lat="45.79231605747617" lon="13.22103519381745"><ele>-2.5</ele><time>2026-05-03T04:21:29Z</time></trkpt><trkpt lat="45.79227165523978" lon="13.220871883466785"><ele>-2.75</ele><time>2026-05-03T04:21:31Z</time></trkpt><trkpt lat="45.79223261244244" lon="13.220711538039795"><ele>-3.0</ele><time>2026-05-03T04:21:33Z</time></trkpt><trkpt lat="45.79219296652853" lon="13.220557745630444"><ele>-2.5</ele><time>2026-05-03T04:21:34.999Z</time></trkpt><trkpt lat="45.792146591824064" lon="13.220400361584048"><ele>-2.0</ele><time>2026-05-03T04:21:36.999Z</time></trkpt><trkpt lat="45.79210600561589" lon="13.220246620374244"><ele>-1.5</ele><time>2026-05-03T04:21:38.999Z</time></trkpt><trkpt lat="45.79205854282624" lon="13.220092567444004"><ele>-1.0</ele><time>2026-05-03T04:21:40.999Z</time></trkpt><trkpt lat="45.79200653057982" lon="13.219938051144352"><ele>-0.5</ele><time>2026-05-03T04:21:42.999Z</time></trkpt><trkpt lat="45.79195355400816" lon="13.219782635398563"><ele>0.0</ele><time>2026-05-03T04:21:44.999Z</time></trkpt><trkpt lat="45.79189646890546" lon="13.219633933981797"><ele>0.5</ele><time>2026-05-03T04:21:46.999Z</time></trkpt><trkpt lat="45.79184011573734" lon="13.219481237563286"><ele>1.0</ele><time>2026-05-03T04:21:48.999Z</time></trkpt><trkpt lat="45.79179189285877" lon="13.219323448109105"><ele>1.0</ele><time>2026-05-03T04:21:50.999Z</time></trkpt><trkpt lat="45.791772465922904" lon="13.219235335663235"><ele>1.0</ele><time>2026-05-03T04:21:51.999Z</time></trkpt><trkpt lat="45.79174024441511" lon="13.219068787567387"><ele>1.0</ele><time>2026-05-03T04:21:53.999Z</time></trkpt><trkpt lat="45.79170471115726" lon="13.218896994096326"><ele>1.0</ele><time>2026-05-03T04:21:55.999Z</time></trkpt><trkpt lat="45.79167488487312" lon="13.2187281722317"><ele>1.0</ele><time>2026-05-03T04:21:57.999Z</time></trkpt><trkpt lat="45.79164337541938" lon="13.218564435162552"><ele>1.0</ele><time>2026-05-03T04:21:59.999Z</time></trkpt><trkpt lat="45.79161335881596" lon="13.218400222815674"><ele>1.0</ele><time>2026-05-03T04:22:01.999Z</time></trkpt><trkpt lat="45.79158375518193" lon="13.218240328042906"><ele>1.0</ele><time>2026-05-03T04:22:03.999Z</time></trkpt><trkpt lat="45.79155673808321" lon="13.218065564770976"><ele>1.0</ele><time>2026-05-03T04:22:05.999Z</time></trkpt><trkpt lat="45.79153734055408" lon="13.21790298165667"><ele>0.75</ele><time>2026-05-03T04:22:07.999Z</time></trkpt><trkpt lat="45.79157336284772" lon="13.217739939352365"><ele>0.5</ele><time>2026-05-03T04:22:09.999Z</time></trkpt><trkpt lat="45.791627298912324" lon="13.21759264890408"><ele>0.25</ele><time>2026-05-03T04:22:11.999Z</time></trkpt><trkpt lat="45.79170614809199" lon="13.217467554118386"><ele>0.0</ele><time>2026-05-03T04:22:13.999Z</time></trkpt><trkpt lat="45.79180813748674" lon="13.217371736612611"><ele>0.0</ele><time>2026-05-03T04:22:15.999Z</time></trkpt><trkpt lat="45.79191114819372" lon="13.217293429157477"><ele>0.0</ele><time>2026-05-03T04:22:18Z</time></trkpt><trkpt lat="45.79200883039524" lon="13.217202367784347"><ele>0.0</ele><time>2026-05-03T04:22:20Z</time></trkpt><trkpt lat="45.79210891207389" lon="13.217107663467257"><ele>0.0</ele><time>2026-05-03T04:22:22Z</time></trkpt><trkpt lat="45.79220849702824" lon="13.217016765799688"><ele>0.0</ele><time>2026-05-03T04:22:24Z</time></trkpt><trkpt lat="45.79230756268641" lon="13.216926810152025"><ele>0.0</ele><time>2026-05-03T04:22:26Z</time></trkpt><trkpt lat="45.79240077544895" lon="13.216833159921668"><ele>0.0</ele><time>2026-05-03T04:22:28Z</time></trkpt><trkpt lat="45.79248811998503" lon="13.216744935657184"><ele>0.0</ele><time>2026-05-03T04:22:30Z</time></trkpt><trkpt lat="45.792590054273376" lon="13.21665178861483"><ele>0.0</ele><time>2026-05-03T04:22:32Z</time></trkpt><trkpt lat="45.792686175761" lon="13.21655489445423"><ele>0.0</ele><time>2026-05-03T04:22:34Z</time></trkpt><trkpt lat="45.792785625968136" lon="13.21646483075936"><ele>0.0</ele><time>2026-05-03T04:22:36Z</time></trkpt><trkpt lat="45.79287971835151" lon="13.21636878049666"><ele>0.0</ele><time>2026-05-03T04:22:38Z</time></trkpt><trkpt lat="45.79297874089778" lon="13.216279073377521"><ele>0.0</ele><time>2026-05-03T04:22:40Z</time></trkpt><trkpt lat="45.79307405105378" lon="13.216180758377506"><ele>0.0</ele><time>2026-05-03T04:22:42Z</time></trkpt><trkpt lat="45.79317104312866" lon="13.216088777291741"><ele>0.0</ele><time>2026-05-03T04:22:44Z</time></trkpt><trkpt lat="45.7932682644817" lon="13.21598921065927"><ele>0.0</ele><time>2026-05-03T04:22:46Z</time></trkpt><trkpt lat="45.79337410361918" lon="13.215895235969175"><ele>0.0</ele><time>2026-05-03T04:22:48Z</time></trkpt><trkpt lat="45.79347101709823" lon="13.21579634130976"><ele>0.0</ele><time>2026-05-03T04:22:50Z</time></trkpt><trkpt lat="45.79357242328586" lon="13.215707245444348"><ele>0.0</ele><time>2026-05-03T04:22:52Z</time></trkpt><trkpt lat="45.793665444883814" lon="13.215617602430001"><ele>0.0</ele><time>2026-05-03T04:22:54Z</time></trkpt><trkpt lat="45.79376351523794" lon="13.215519113375127"><ele>0.25</ele><time>2026-05-03T04:22:56Z</time></trkpt><trkpt lat="45.79385631234567" lon="13.21542004940949"><ele>0.5</ele><time>2026-05-03T04:22:58Z</time></trkpt><trkpt lat="45.79395787725586" lon="13.21532725432721"><ele>0.75</ele><time>2026-05-03T04:23:00Z</time></trkpt><trkpt lat="45.79405304302029" lon="13.215240646918298"><ele>1.0</ele><time>2026-05-03T04:23:02Z</time></trkpt><trkpt lat="45.79414778722396" lon="13.21514464167007"><ele>1.0</ele><time>2026-05-03T04:23:04Z</time></trkpt><trkpt lat="45.79424223896819" lon="13.215053555989709"><ele>1.0</ele><time>2026-05-03T04:23:06Z</time></trkpt><trkpt lat="45.79433819725987" lon="13.214960887114275"><ele>1.0</ele><time>2026-05-03T04:23:08Z</time></trkpt><trkpt lat="45.79443298527988" lon="13.214868666396146"><ele>1.0</ele><time>2026-05-03T04:23:10Z</time></trkpt><trkpt lat="45.79452484357285" lon="13.214777432984345"><ele>1.25</ele><time>2026-05-03T04:23:12Z</time></trkpt><trkpt lat="45.79462030767168" lon="13.21468158332983"><ele>1.5</ele><time>2026-05-03T04:23:14Z</time></trkpt><trkpt lat="45.79471732271338" lon="13.214588953513186"><ele>1.75</ele><time>2026-05-03T04:23:16Z</time></trkpt><trkpt lat="45.794814296990204" lon="13.214498402847228"><ele>2.0</ele><time>2026-05-03T04:23:18Z</time></trkpt><trkpt lat="45.794918979137016" lon="13.214404829996846"><ele>2.0</ele><time>2026-05-03T04:23:20Z</time></trkpt><trkpt lat="45.795013532236574" lon="13.214307076576139"><ele>2.0</ele><time>2026-05-03T04:23:22Z</time></trkpt><trkpt lat="45.795109501722166" lon="13.214217249361333"><ele>2.0</ele><time>2026-05-03T04:23:24Z</time></trkpt><trkpt lat="45.79520785649034" lon="13.214122039904495"><ele>2.0</ele><time>2026-05-03T04:23:26Z</time></trkpt><trkpt lat="45.79530870034062" lon="13.214034435632515"><ele>1.75</ele><time>2026-05-03T04:23:28Z</time></trkpt><trkpt lat="45.79540299268234" lon="13.213938972402387"><ele>1.5</ele><time>2026-05-03T04:23:30Z</time></trkpt><trkpt lat="45.795498735111565" lon="13.213844780807564"><ele>1.25</ele><time>2026-05-03T04:23:32Z</time></trkpt><trkpt lat="45.79559232752101" lon="13.213748129378903"><ele>1.0</ele><time>2026-05-03T04:23:34Z</time></trkpt><trkpt lat="45.79569101261315" lon="13.213655529066333"><ele>1.0</ele><time>2026-05-03T04:23:36Z</time></trkpt><trkpt lat="45.79578609476098" lon="13.213560986569792"><ele>1.0</ele><time>2026-05-03T04:23:38Z</time></trkpt><trkpt lat="45.79588472908934" lon="13.213469743582422"><ele>1.0</ele><time>2026-05-03T04:23:40Z</time></trkpt><trkpt lat="45.795979141613806" lon="13.21337756849436"><ele>1.0</ele><time>2026-05-03T04:23:42Z</time></trkpt><trkpt lat="45.796075540241404" lon="13.213286183509922"><ele>0.8</ele><time>2026-05-03T04:23:44Z</time></trkpt><trkpt lat="45.79616715690755" lon="13.213196909703989"><ele>0.6000000000000001</ele><time>2026-05-03T04:23:45.999Z</time></trkpt><trkpt lat="45.7962597788069" lon="13.213106777880771"><ele>0.4</ele><time>2026-05-03T04:23:47.999Z</time></trkpt><trkpt lat="45.79636425639382" lon="13.2130568568241"><ele>0.2</ele><time>2026-05-03T04:23:49.999Z</time></trkpt><trkpt lat="45.79647123168502" lon="13.213005274955885"><ele>0.0</ele><time>2026-05-03T04:23:51.999Z</time></trkpt><trkpt lat="45.79657511880567" lon="13.212950719349953"><ele>-0.5</ele><time>2026-05-03T04:23:53.999Z</time></trkpt><trkpt lat="45.79668856615432" lon="13.212912114512475"><ele>-1.0</ele><time>2026-05-03T04:23:55.999Z</time></trkpt><trkpt lat="45.79680087802893" lon="13.212872360587765"><ele>-1.5</ele><time>2026-05-03T04:23:57.999Z</time></trkpt><trkpt lat="45.79691634807572" lon="13.212835248201293"><ele>-2.0</ele><time>2026-05-03T04:23:59.999Z</time></trkpt><trkpt lat="45.797031474215125" lon="13.21279931809177"><ele>-2.0</ele><time>2026-05-03T04:24:01.999Z</time></trkpt><trkpt lat="45.79714400649692" lon="13.212774984899948"><ele>-2.0</ele><time>2026-05-03T04:24:03.999Z</time></trkpt><trkpt lat="45.7972576463105" lon="13.212747110789334"><ele>-2.0</ele><time>2026-05-03T04:24:05.999Z</time></trkpt><trkpt lat="45.797373768553115" lon="13.212716619194628"><ele>-2.0</ele><time>2026-05-03T04:24:07.999Z</time></trkpt><trkpt lat="45.7974873640879" lon="13.212696914065011"><ele>-2.0</ele><time>2026-05-03T04:24:09.999Z</time></trkpt><trkpt lat="45.79760658325168" lon="13.212679688159048"><ele>-2.0</ele><time>2026-05-03T04:24:11.999Z</time></trkpt><trkpt lat="45.79767075602367" lon="13.212678603354203"><ele>-2.0</ele><time>2026-05-03T04:24:12.999Z</time></trkpt><trkpt lat="45.79778675101357" lon="13.212673014770887"><ele>-2.0</ele><time>2026-05-03T04:24:14.999Z</time></trkpt><trkpt lat="45.79790174903105" lon="13.212682037239663"><ele>-2.0</ele><time>2026-05-03T04:24:16.999Z</time></trkpt><trkpt lat="45.79801615779562" lon="13.212683442373951"><ele>-2.0</ele><time>2026-05-03T04:24:18.999Z</time></trkpt><trkpt lat="45.79812952593323" lon="13.212681911221795"><ele>-2.0</ele><time>2026-05-03T04:24:20.999Z</time></trkpt><trkpt lat="45.79823603619427" lon="13.212685510030553"><ele>-2.0</ele><time>2026-05-03T04:24:23Z</time></trkpt><trkpt lat="45.79835084321005" lon="13.21267799248821"><ele>-2.0</ele><time>2026-05-03T04:24:25Z</time></trkpt><trkpt lat="45.798463349648195" lon="13.212688991395925"><ele>-2.0</ele><time>2026-05-03T04:24:27Z</time></trkpt><trkpt lat="45.79857712290884" lon="13.212689334098904"><ele>-1.75</ele><time>2026-05-03T04:24:29Z</time></trkpt><trkpt lat="45.798691016890984" lon="13.212692198333578"><ele>-1.5</ele><time>2026-05-03T04:24:31Z</time></trkpt><trkpt lat="45.79880379429878" lon="13.212693170261803"><ele>-1.25</ele><time>2026-05-03T04:24:33Z</time></trkpt><trkpt lat="45.79891640939019" lon="13.212696538807675"><ele>-1.0</ele><time>2026-05-03T04:24:35Z</time></trkpt><trkpt lat="45.79903068417497" lon="13.212695235455149"><ele>-1.0</ele><time>2026-05-03T04:24:37Z</time></trkpt><trkpt lat="45.79914631904354" lon="13.212695901409809"><ele>-1.0</ele><time>2026-05-03T04:24:39Z</time></trkpt><trkpt lat="45.799260779012805" lon="13.212700620441364"><ele>-1.0</ele><time>2026-05-03T04:24:41Z</time></trkpt><trkpt lat="45.79937357858434" lon="13.212698672567916"><ele>-1.0</ele><time>2026-05-03T04:24:43Z</time></trkpt><trkpt lat="45.79948824861871" lon="13.212701310376522"><ele>-1.0</ele><time>2026-05-03T04:24:45Z</time></trkpt><trkpt lat="45.79960274172085" lon="13.212705165997084"><ele>-1.0</ele><time>2026-05-03T04:24:47Z</time></trkpt><trkpt lat="45.79971746379641" lon="13.212703865363915"><ele>-1.0</ele><time>2026-05-03T04:24:49Z</time></trkpt><trkpt lat="45.79982938884461" lon="13.212705254335736"><ele>-1.0</ele><time>2026-05-03T04:24:51Z</time></trkpt><trkpt lat="45.7999431071738" lon="13.212710245500276"><ele>-1.0</ele><time>2026-05-03T04:24:53Z</time></trkpt><trkpt lat="45.80005979904305" lon="13.21271130279977"><ele>-1.0</ele><time>2026-05-03T04:24:55Z</time></trkpt><trkpt lat="45.80017590758505" lon="13.212712412557504"><ele>-1.0</ele><time>2026-05-03T04:24:57Z</time></trkpt><trkpt lat="45.80028970889827" lon="13.212708488794748"><ele>-1.0</ele><time>2026-05-03T04:24:59Z</time></trkpt><trkpt lat="45.80040473064623" lon="13.212712405883867"><ele>-0.75</ele><time>2026-05-03T04:25:01Z</time></trkpt><trkpt lat="45.80051692445446" lon="13.212716689428177"><ele>-0.5</ele><time>2026-05-03T04:25:03Z</time></trkpt><trkpt lat="45.800628239059044" lon="13.21271944070467"><ele>-0.25</ele><time>2026-05-03T04:25:05Z</time></trkpt><trkpt lat="45.80074271531096" lon="13.212722219138058"><ele>0.0</ele><time>2026-05-03T04:25:07Z</time></trkpt><trkpt lat="45.80085603355163" lon="13.212724432694628"><ele>0.0</ele><time>2026-05-03T04:25:09Z</time></trkpt><trkpt lat="45.800969583690204" lon="13.212725929015779"><ele>0.0</ele><time>2026-05-03T04:25:11Z</time></trkpt><trkpt lat="45.80108808412647" lon="13.212728752440025"><ele>0.0</ele><time>2026-05-03T04:25:13Z</time></trkpt><trkpt lat="45.80119931863811" lon="13.21273115844403"><ele>0.0</ele><time>2026-05-03T04:25:15Z</time></trkpt><trkpt lat="45.801311286147644" lon="13.21273208905392"><ele>0.25</ele><time>2026-05-03T04:25:17Z</time></trkpt><trkpt lat="45.801421926905995" lon="13.212729415427228"><ele>0.5</ele><time>2026-05-03T04:25:19Z</time></trkpt><trkpt lat="45.801537705321294" lon="13.212729674363445"><ele>0.75</ele><time>2026-05-03T04:25:21Z</time></trkpt><trkpt lat="45.80165276903773" lon="13.212731798596229"><ele>1.0</ele><time>2026-05-03T04:25:23Z</time></trkpt><trkpt lat="45.80176645041028" lon="13.212741276476907"><ele>0.6000000000000001</ele><time>2026-05-03T04:25:25Z</time></trkpt><trkpt lat="45.801878772453335" lon="13.212737707616334"><ele>0.20000000000000007</ele><time>2026-05-03T04:25:27Z</time></trkpt><trkpt lat="45.80199012136545" lon="13.21274045913905"><ele>-0.20000000000000007</ele><time>2026-05-03T04:25:29Z</time></trkpt><trkpt lat="45.80210238793537" lon="13.212745177947154"><ele>-0.6000000000000001</ele><time>2026-05-03T04:25:31Z</time></trkpt><trkpt lat="45.80221283518374" lon="13.212749059329395"><ele>-1.0</ele><time>2026-05-03T04:25:33Z</time></trkpt><trkpt lat="45.80232689326367" lon="13.212752076580662"><ele>-1.0</ele><time>2026-05-03T04:25:35Z</time></trkpt><trkpt lat="45.80244521859282" lon="13.212754553921041"><ele>-1.0</ele><time>2026-05-03T04:25:37Z</time></trkpt><trkpt lat="45.80255745984595" lon="13.212750696709456"><ele>-1.0</ele><time>2026-05-03T04:25:39Z</time></trkpt><trkpt lat="45.80266994795423" lon="13.212753064432075"><ele>-1.0</ele><time>2026-05-03T04:25:40.999Z</time></trkpt><trkpt lat="45.802783554558594" lon="13.212753766371748"><ele>-0.75</ele><time>2026-05-03T04:25:42.999Z</time></trkpt><trkpt lat="45.80289742300133" lon="13.212752889796132"><ele>-0.5</ele><time>2026-05-03T04:25:44.999Z</time></trkpt><trkpt lat="45.80301565233123" lon="13.212757626589005"><ele>-0.25</ele><time>2026-05-03T04:25:46.999Z</time></trkpt><trkpt lat="45.80313085993271" lon="13.212763137232859"><ele>0.0</ele><time>2026-05-03T04:25:48.999Z</time></trkpt><trkpt lat="45.803244357458304" lon="13.21276098949585"><ele>0.0</ele><time>2026-05-03T04:25:50.999Z</time></trkpt><trkpt lat="45.803363364790926" lon="13.212763693848578"><ele>0.0</ele><time>2026-05-03T04:25:52.999Z</time></trkpt><trkpt lat="45.80348056952959" lon="13.21276203894354"><ele>0.0</ele><time>2026-05-03T04:25:54.999Z</time></trkpt><trkpt lat="45.80360039397265" lon="13.212764496644208"><ele>0.0</ele><time>2026-05-03T04:25:56.999Z</time></trkpt><trkpt lat="45.803715951828636" lon="13.212766361142894"><ele>0.0</ele><time>2026-05-03T04:25:58.999Z</time></trkpt><trkpt lat="45.803836773402445" lon="13.212766281177023"><ele>0.0</ele><time>2026-05-03T04:26:00.999Z</time></trkpt><trkpt lat="45.803954754399065" lon="13.212768121984121"><ele>0.0</ele><time>2026-05-03T04:26:02.999Z</time></trkpt><trkpt lat="45.80407059923017" lon="13.212774090147928"><ele>0.0</ele><time>2026-05-03T04:26:04.999Z</time></trkpt><trkpt lat="45.8041880697528" lon="13.212778770151372"><ele>0.0</ele><time>2026-05-03T04:26:06.999Z</time></trkpt><trkpt lat="45.804304980912725" lon="13.212783683777344"><ele>0.0</ele><time>2026-05-03T04:26:08.999Z</time></trkpt><trkpt lat="45.80442530663848" lon="13.212779417997039"><ele>0.0</ele><time>2026-05-03T04:26:10.999Z</time></trkpt><trkpt lat="45.80454704412965" lon="13.21278240709745"><ele>0.0</ele><time>2026-05-03T04:26:12.999Z</time></trkpt><trkpt lat="45.80466732726952" lon="13.21278833715796"><ele>0.0</ele><time>2026-05-03T04:26:14.999Z</time></trkpt><trkpt lat="45.80478545781286" lon="13.212787985147736"><ele>0.0</ele><time>2026-05-03T04:26:16.999Z</time></trkpt><trkpt lat="45.80490611784619" lon="13.21278624637151"><ele>0.0</ele><time>2026-05-03T04:26:18.999Z</time></trkpt><trkpt lat="45.80503092150558" lon="13.21278712774863"><ele>0.0</ele><time>2026-05-03T04:26:20.999Z</time></trkpt><trkpt lat="45.8051547242631" lon="13.212792702431765"><ele>-0.2</ele><time>2026-05-03T04:26:22.999Z</time></trkpt><trkpt lat="45.80528220887367" lon="13.212794952119404"><ele>-0.4</ele><time>2026-05-03T04:26:24.999Z</time></trkpt><trkpt lat="45.80534532737454" lon="13.21279392779752"><ele>-0.6000000000000001</ele><time>2026-05-03T04:26:25.999Z</time></trkpt><trkpt lat="45.80546820329391" lon="13.212794840583756"><ele>-0.8</ele><time>2026-05-03T04:26:28Z</time></trkpt><trkpt lat="45.805533205918174" lon="13.212795056894288"><ele>-1.0</ele><time>2026-05-03T04:26:29Z</time></trkpt><trkpt lat="45.805658040717745" lon="13.212794868618511"><ele>-0.9999999999999999</ele><time>2026-05-03T04:26:31Z</time></trkpt><trkpt lat="45.80578467115133" lon="13.212798031600029"><ele>-1.0</ele><time>2026-05-03T04:26:33Z</time></trkpt><trkpt lat="45.805848008797234" lon="13.212802758719832"><ele>-1.0</ele><time>2026-05-03T04:26:34Z</time></trkpt><trkpt lat="45.8059135322195" lon="13.21280271190482"><ele>-1.0</ele><time>2026-05-03T04:26:35Z</time></trkpt><trkpt lat="45.806039157340855" lon="13.212798187780193"><ele>-0.9999999999999999</ele><time>2026-05-03T04:26:37Z</time></trkpt><trkpt lat="45.806102772881594" lon="13.212795686014928"><ele>-1.0</ele><time>2026-05-03T04:26:38Z</time></trkpt><trkpt lat="45.80622530139574" lon="13.212800266907864"><ele>-0.75</ele><time>2026-05-03T04:26:40Z</time></trkpt><trkpt lat="45.806350008071924" lon="13.21279711514596"><ele>-0.5</ele><time>2026-05-03T04:26:42Z</time></trkpt><trkpt lat="45.80646744760913" lon="13.21279461709432"><ele>-0.25</ele><time>2026-05-03T04:26:44Z</time></trkpt><trkpt lat="45.80657733038677" lon="13.212789835463687"><ele>0.0</ele><time>2026-05-03T04:26:46Z</time></trkpt><trkpt lat="45.80669234385805" lon="13.212796875961102"><ele>0.0</ele><time>2026-05-03T04:26:48Z</time></trkpt><trkpt lat="45.80680521892722" lon="13.212793304304325"><ele>0.0</ele><time>2026-05-03T04:26:50Z</time></trkpt><trkpt lat="45.80691519156294" lon="13.212788086895603"><ele>0.0</ele><time>2026-05-03T04:26:52Z</time></trkpt><trkpt lat="45.80702757908971" lon="13.212789371400586"><ele>0.0</ele><time>2026-05-03T04:26:54Z</time></trkpt><trkpt lat="45.80713978684589" lon="13.212792222844248"><ele>0.0</ele><time>2026-05-03T04:26:56Z</time></trkpt><trkpt lat="45.80725736776788" lon="13.212787822822003"><ele>0.0</ele><time>2026-05-03T04:26:58Z</time></trkpt><trkpt lat="45.80737165304009" lon="13.2127895406161"><ele>0.0</ele><time>2026-05-03T04:27:00Z</time></trkpt><trkpt lat="45.807483057219294" lon="13.212785795562521"><ele>0.0</ele><time>2026-05-03T04:27:02Z</time></trkpt><trkpt lat="45.807594003895424" lon="13.212779758263187"><ele>0.0</ele><time>2026-05-03T04:27:04Z</time></trkpt><trkpt lat="45.80770524007661" lon="13.212777937131307"><ele>0.0</ele><time>2026-05-03T04:27:06Z</time></trkpt><trkpt lat="45.807819125482936" lon="13.212775657586691"><ele>-0.2</ele><time>2026-05-03T04:27:08Z</time></trkpt><trkpt lat="45.80793243417603" lon="13.21277661705504"><ele>-0.4</ele><time>2026-05-03T04:27:10Z</time></trkpt><trkpt lat="45.808036960210266" lon="13.212777165215927"><ele>-0.6000000000000001</ele><time>2026-05-03T04:27:12Z</time></trkpt><trkpt lat="45.808138987970366" lon="13.212773545591382"><ele>-0.8</ele><time>2026-05-03T04:27:14Z</time></trkpt><trkpt lat="45.80825467518731" lon="13.212770796658026"><ele>-1.0</ele><time>2026-05-03T04:27:16Z</time></trkpt><trkpt lat="45.80837027341702" lon="13.212770538111707"><ele>-1.0</ele><time>2026-05-03T04:27:18Z</time></trkpt><trkpt lat="45.80849103783379" lon="13.212767841670145"><ele>-1.0</ele><time>2026-05-03T04:27:20Z</time></trkpt><trkpt lat="45.808611685741155" lon="13.212767541864938"><ele>-1.0</ele><time>2026-05-03T04:27:22Z</time></trkpt><trkpt lat="45.80872752451729" lon="13.21276866941402"><ele>-1.0</ele><time>2026-05-03T04:27:24Z</time></trkpt><trkpt lat="45.80885012371076" lon="13.212765821792747"><ele>-0.6666666666666666</ele><time>2026-05-03T04:27:26Z</time></trkpt><trkpt lat="45.808914945672505" lon="13.212761650228655"><ele>-0.3333333333333333</ele><time>2026-05-03T04:27:27Z</time></trkpt><trkpt lat="45.80903781813308" lon="13.212761476854906"><ele>0.0</ele><time>2026-05-03T04:27:29Z</time></trkpt><trkpt lat="45.809102295602386" lon="13.212759178139484"><ele>0.3333333333333333</ele><time>2026-05-03T04:27:30Z</time></trkpt><trkpt lat="45.80922747603063" lon="13.212764552345995"><ele>0.6666666666666666</ele><time>2026-05-03T04:27:32Z</time></trkpt><trkpt lat="45.809290799308776" lon="13.21276155558151"><ele>1.0</ele><time>2026-05-03T04:27:33Z</time></trkpt><trkpt lat="45.809412387823215" lon="13.212774874538539"><ele>1.25</ele><time>2026-05-03T04:27:35Z</time></trkpt><trkpt lat="45.809534758446894" lon="13.21280546442864"><ele>1.5</ele><time>2026-05-03T04:27:37Z</time></trkpt><trkpt lat="45.80965366349214" lon="13.212845984779591"><ele>1.75</ele><time>2026-05-03T04:27:39Z</time></trkpt><trkpt lat="45.80976968596903" lon="13.212887574563212"><ele>2.0</ele><time>2026-05-03T04:27:41Z</time></trkpt><trkpt lat="45.80988895811873" lon="13.212927403695153"><ele>2.0</ele><time>2026-05-03T04:27:43Z</time></trkpt><trkpt lat="45.81000551473073" lon="13.212974246079572"><ele>2.0</ele><time>2026-05-03T04:27:45Z</time></trkpt><trkpt lat="45.81012488300798" lon="13.213014731303902"><ele>2.0</ele><time>2026-05-03T04:27:47Z</time></trkpt><trkpt lat="45.81024170895545" lon="13.213054847391419"><ele>2.0</ele><time>2026-05-03T04:27:49Z</time></trkpt><trkpt lat="45.810359264938704" lon="13.213096041672076"><ele>2.0</ele><time>2026-05-03T04:27:51Z</time></trkpt><trkpt lat="45.810471289966834" lon="13.21313537166128"><ele>2.0</ele><time>2026-05-03T04:27:53Z</time></trkpt><trkpt lat="45.81058173230741" lon="13.213177670719208"><ele>2.0</ele><time>2026-05-03T04:27:55Z</time></trkpt><trkpt lat="45.81069508415382" lon="13.21322379810682"><ele>2.0</ele><time>2026-05-03T04:27:57Z</time></trkpt><trkpt lat="45.81080777479787" lon="13.213258522315156"><ele>2.2</ele><time>2026-05-03T04:27:59Z</time></trkpt><trkpt lat="45.810917711364816" lon="13.213299282094841"><ele>2.4000000000000004</ele><time>2026-05-03T04:28:01Z</time></trkpt><trkpt lat="45.811020792973046" lon="13.213336745562508"><ele>2.5999999999999996</ele><time>2026-05-03T04:28:03Z</time></trkpt><trkpt lat="45.81111636792428" lon="13.213365171929"><ele>2.8</ele><time>2026-05-03T04:28:05Z</time></trkpt><trkpt lat="45.81122259664174" lon="13.213396648265793"><ele>3.0</ele><time>2026-05-03T04:28:06.999Z</time></trkpt><trkpt lat="45.81133568523507" lon="13.213408505010088"><ele>2.8</ele><time>2026-05-03T04:28:08.999Z</time></trkpt><trkpt lat="45.81144107488812" lon="13.213416226720714"><ele>2.5999999999999996</ele><time>2026-05-03T04:28:10.999Z</time></trkpt><trkpt lat="45.81154762745924" lon="13.213421050702191"><ele>2.4000000000000004</ele><time>2026-05-03T04:28:12.999Z</time></trkpt><trkpt lat="45.81165170346536" lon="13.21342141730981"><ele>2.2</ele><time>2026-05-03T04:28:14.999Z</time></trkpt><trkpt lat="45.81174854602118" lon="13.213420776649707"><ele>2.0</ele><time>2026-05-03T04:28:16.999Z</time></trkpt><trkpt lat="45.8118473372338" lon="13.213393755678274"><ele>2.0</ele><time>2026-05-03T04:28:18.999Z</time></trkpt><trkpt lat="45.811955331020094" lon="13.213447601421175"><ele>2.0</ele><time>2026-05-03T04:28:20.999Z</time></trkpt><trkpt lat="45.81205238712591" lon="13.21348247332718"><ele>2.0</ele><time>2026-05-03T04:28:22.999Z</time></trkpt><trkpt lat="45.81214875068015" lon="13.213480534807536"><ele>2.0</ele><time>2026-05-03T04:28:24.999Z</time></trkpt><trkpt lat="45.812185086756514" lon="13.21358594214994"><ele>2.0</ele><time>2026-05-03T04:28:25.999Z</time></trkpt><trkpt lat="45.812269663102526" lon="13.213672364196043"><ele>2.0</ele><time>2026-05-03T04:28:27.999Z</time></trkpt><trkpt lat="45.81235451216399" lon="13.21376217023895"><ele>2.0</ele><time>2026-05-03T04:28:29.999Z</time></trkpt><trkpt lat="45.81244525823677" lon="13.213844575363106"><ele>2.0</ele><time>2026-05-03T04:28:31.999Z</time></trkpt><trkpt lat="45.8125313077565" lon="13.213935980735927"><ele>2.0</ele><time>2026-05-03T04:28:34Z</time></trkpt><trkpt lat="45.81261860332506" lon="13.214017043000062"><ele>2.0</ele><time>2026-05-03T04:28:36Z</time></trkpt><trkpt lat="45.812706585559134" lon="13.214098287854396"><ele>2.0</ele><time>2026-05-03T04:28:38Z</time></trkpt><trkpt lat="45.81279522471103" lon="13.214183909066877"><ele>2.0</ele><time>2026-05-03T04:28:40Z</time></trkpt><trkpt lat="45.812884941540744" lon="13.214261342811556"><ele>2.0</ele><time>2026-05-03T04:28:42Z</time></trkpt><trkpt lat="45.81297386233292" lon="13.214341526903217"><ele>2.0</ele><time>2026-05-03T04:28:44Z</time></trkpt><trkpt lat="45.813065200193435" lon="13.214417834992203"><ele>2.0</ele><time>2026-05-03T04:28:46Z</time></trkpt><trkpt lat="45.81315872882371" lon="13.214483382057013"><ele>2.0</ele><time>2026-05-03T04:28:48Z</time></trkpt><trkpt lat="45.813243719137475" lon="13.214551031011426"><ele>2.0</ele><time>2026-05-03T04:28:50Z</time></trkpt><trkpt lat="45.813325379644155" lon="13.214615456518334"><ele>2.0</ele><time>2026-05-03T04:28:52Z</time></trkpt><trkpt lat="45.81338682397801" lon="13.214696012320577"><ele>2.0</ele><time>2026-05-03T04:28:54Z</time></trkpt><trkpt lat="45.813460083937684" lon="13.214762352361454"><ele>2.0</ele><time>2026-05-03T04:28:56Z</time></trkpt><trkpt lat="45.813559899017186" lon="13.214719229635005"><ele>2.0</ele><time>2026-05-03T04:28:58Z</time></trkpt><trkpt lat="45.81363189435972" lon="13.21459819089624"><ele>2.0</ele><time>2026-05-03T04:29:00Z</time></trkpt><trkpt lat="45.81372856837425" lon="13.21453518323962"><ele>2.0</ele><time>2026-05-03T04:29:02Z</time></trkpt><trkpt lat="45.81382018824762" lon="13.21445908793971"><ele>2.0</ele><time>2026-05-03T04:29:04Z</time></trkpt><trkpt lat="45.81391646411143" lon="13.214399242424692"><ele>2.0</ele><time>2026-05-03T04:29:06Z</time></trkpt><trkpt lat="45.814016814135876" lon="13.214341996310305"><ele>2.0</ele><time>2026-05-03T04:29:08Z</time></trkpt><trkpt lat="45.81411731924586" lon="13.214286062515956"><ele>2.0</ele><time>2026-05-03T04:29:10Z</time></trkpt><trkpt lat="45.814213141017675" lon="13.214230076943528"><ele>2.0</ele><time>2026-05-03T04:29:12Z</time></trkpt><trkpt lat="45.81430705377894" lon="13.214179311545466"><ele>2.0</ele><time>2026-05-03T04:29:14Z</time></trkpt><trkpt lat="45.8144043358589" lon="13.214140405727575"><ele>2.0</ele><time>2026-05-03T04:29:16Z</time></trkpt><trkpt lat="45.814502221589116" lon="13.214114287103502"><ele>2.2</ele><time>2026-05-03T04:29:18Z</time></trkpt><trkpt lat="45.814606578358095" lon="13.214101678519672"><ele>2.4000000000000004</ele><time>2026-05-03T04:29:20Z</time></trkpt><trkpt lat="45.81470952610544" lon="13.214093634299354"><ele>2.5999999999999996</ele><time>2026-05-03T04:29:22Z</time></trkpt><trkpt lat="45.8148068158654" lon="13.214077904364258"><ele>2.8</ele><time>2026-05-03T04:29:24Z</time></trkpt><trkpt lat="45.81490623578744" lon="13.214059493178473"><ele>3.0</ele><time>2026-05-03T04:29:26Z</time></trkpt><trkpt lat="45.81500908280411" lon="13.214039492140735"><ele>3.0</ele><time>2026-05-03T04:29:28Z</time></trkpt><trkpt lat="45.81511669739031" lon="13.214022181840155"><ele>3.0</ele><time>2026-05-03T04:29:30Z</time></trkpt><trkpt lat="45.815215310312944" lon="13.214003453498332"><ele>3.0</ele><time>2026-05-03T04:29:32Z</time></trkpt><trkpt lat="45.81531739388943" lon="13.213976487788035"><ele>3.0</ele><time>2026-05-03T04:29:34Z</time></trkpt><trkpt lat="45.815420137853856" lon="13.213967895680584"><ele>3.0</ele><time>2026-05-03T04:29:36Z</time></trkpt><trkpt lat="45.81552989727821" lon="13.21394683200625"><ele>3.0</ele><time>2026-05-03T04:29:38Z</time></trkpt><trkpt lat="45.81563130709879" lon="13.213919060625983"><ele>3.0</ele><time>2026-05-03T04:29:40Z</time></trkpt><trkpt lat="45.81573020469253" lon="13.213902528497625"><ele>3.0</ele><time>2026-05-03T04:29:42Z</time></trkpt><trkpt lat="45.81583228650627" lon="13.21389175745809"><ele>3.0</ele><time>2026-05-03T04:29:44Z</time></trkpt><trkpt lat="45.81592548211136" lon="13.21385972485679"><ele>3.0</ele><time>2026-05-03T04:29:46Z</time></trkpt><trkpt lat="45.81602773648549" lon="13.213829896088694"><ele>3.0</ele><time>2026-05-03T04:29:48Z</time></trkpt><trkpt lat="45.81613197076917" lon="13.213798080219366"><ele>3.0</ele><time>2026-05-03T04:29:50Z</time></trkpt><trkpt lat="45.81623102643669" lon="13.213773481629968"><ele>3.0</ele><time>2026-05-03T04:29:52Z</time></trkpt><trkpt lat="45.81632636906301" lon="13.213747078033991"><ele>3.0</ele><time>2026-05-03T04:29:54Z</time></trkpt><trkpt lat="45.81641642661428" lon="13.213705719279536"><ele>3.0</ele><time>2026-05-03T04:29:56Z</time></trkpt><trkpt lat="45.8165095554258" lon="13.213683761131715"><ele>3.0</ele><time>2026-05-03T04:29:58Z</time></trkpt><trkpt lat="45.81659901082738" lon="13.21363339399617"><ele>3.0</ele><time>2026-05-03T04:30:00Z</time></trkpt><trkpt lat="45.81663454710784" lon="13.213497613991205"><ele>3.0</ele><time>2026-05-03T04:30:02Z</time></trkpt><trkpt lat="45.816628068183576" lon="13.213346866489228"><ele>3.0</ele><time>2026-05-03T04:30:04Z</time></trkpt><trkpt lat="45.81662600645399" lon="13.21320939061489"><ele>3.0</ele><time>2026-05-03T04:30:06Z</time></trkpt><trkpt lat="45.816633946749455" lon="13.213075368103084"><ele>2.6</ele><time>2026-05-03T04:30:08Z</time></trkpt><trkpt lat="45.81664388317792" lon="13.21295089674443"><ele>2.1999999999999997</ele><time>2026-05-03T04:30:10Z</time></trkpt><trkpt lat="45.81669023586464" lon="13.212838205528362"><ele>1.8</ele><time>2026-05-03T04:30:12Z</time></trkpt><trkpt lat="45.816798022591016" lon="13.212835402824586"><ele>1.4</ele><time>2026-05-03T04:30:13.999Z</time></trkpt><trkpt lat="45.81689487138783" lon="13.212820659536419"><ele>1.0</ele><time>2026-05-03T04:30:15.999Z</time></trkpt><trkpt lat="45.81698481838532" lon="13.212805024908139"><ele>0.9999999999999999</ele><time>2026-05-03T04:30:17.999Z</time></trkpt><trkpt lat="45.81706268811899" lon="13.21277953199478"><ele>1.0</ele><time>2026-05-03T04:30:19.999Z</time></trkpt><trkpt lat="45.81713264858784" lon="13.212761050887194"><ele>1.0</ele><time>2026-05-03T04:30:21.999Z</time></trkpt><trkpt lat="45.817203903769446" lon="13.212753525343496"><ele>1.0</ele><time>2026-05-03T04:30:23.999Z</time></trkpt><trkpt lat="45.817273993764296" lon="13.212739190179187"><ele>0.9999999999999999</ele><time>2026-05-03T04:30:25.999Z</time></trkpt><trkpt lat="45.817356587458114" lon="13.212714751459064"><ele>1.0</ele><time>2026-05-03T04:30:27.999Z</time></trkpt><trkpt lat="45.81743510230239" lon="13.212694565314326"><ele>1.0</ele><time>2026-05-03T04:30:29.999Z</time></trkpt><trkpt lat="45.817518932847356" lon="13.212657323017728"><ele>1.0</ele><time>2026-05-03T04:30:31.999Z</time></trkpt><trkpt lat="45.81760201351369" lon="13.212616422798435"><ele>1.0</ele><time>2026-05-03T04:30:33.999Z</time></trkpt><trkpt lat="45.81768240584563" lon="13.212558369301492"><ele>1.0</ele><time>2026-05-03T04:30:35.998Z</time></trkpt><trkpt lat="45.817767504536604" lon="13.212501153580112"><ele>1.0</ele><time>2026-05-03T04:30:37.998Z</time></trkpt><trkpt lat="45.8178504222454" lon="13.212440910700415"><ele>1.1666666666666665</ele><time>2026-05-03T04:30:39.999Z</time></trkpt><trkpt lat="45.81792642209815" lon="13.21237752674297"><ele>1.3333333333333333</ele><time>2026-05-03T04:30:41.999Z</time></trkpt><trkpt lat="45.81800060417098" lon="13.212324158457305"><ele>1.5</ele><time>2026-05-03T04:30:43.999Z</time></trkpt><trkpt lat="45.81806659985674" lon="13.212271369075294"><ele>1.6666666666666665</ele><time>2026-05-03T04:30:45.999Z</time></trkpt><trkpt lat="45.818142814909514" lon="13.212213870671983"><ele>1.8333333333333333</ele><time>2026-05-03T04:30:47.999Z</time></trkpt><trkpt lat="45.8182139131421" lon="13.212153855742082"><ele>2.0</ele><time>2026-05-03T04:30:49.999Z</time></trkpt><trkpt lat="45.818293495072126" lon="13.212093327696802"><ele>2.0</ele><time>2026-05-03T04:30:51.999Z</time></trkpt><trkpt lat="45.818368491934784" lon="13.212044809325445"><ele>2.0</ele><time>2026-05-03T04:30:53.999Z</time></trkpt><trkpt lat="45.81845618001947" lon="13.211989511028397"><ele>2.0</ele><time>2026-05-03T04:30:55.999Z</time></trkpt><trkpt lat="45.81853948201987" lon="13.211942665971836"><ele>2.0</ele><time>2026-05-03T04:30:57.999Z</time></trkpt><trkpt lat="45.818628801693436" lon="13.211897834550681"><ele>2.0</ele><time>2026-05-03T04:30:59.999Z</time></trkpt><trkpt lat="45.818714315650645" lon="13.21185455310034"><ele>2.4000000000000004</ele><time>2026-05-03T04:31:01.999Z</time></trkpt><trkpt lat="45.818795959372515" lon="13.21180127520692"><ele>2.8000000000000003</ele><time>2026-05-03T04:31:03.999Z</time></trkpt><trkpt lat="45.81888201441696" lon="13.211763229886067"><ele>3.2</ele><time>2026-05-03T04:31:05.999Z</time></trkpt><trkpt lat="45.81896849062564" lon="13.21173514349122"><ele>3.6</ele><time>2026-05-03T04:31:07.999Z</time></trkpt><trkpt lat="45.81905745534281" lon="13.211680345109285"><ele>4.0</ele><time>2026-05-03T04:31:09.999Z</time></trkpt><trkpt lat="45.819144827971" lon="13.211635705130659"><ele>4.0</ele><time>2026-05-03T04:31:11.999Z</time></trkpt><trkpt lat="45.819227500512675" lon="13.21158792232749"><ele>4.0</ele><time>2026-05-03T04:31:13.999Z</time></trkpt><trkpt lat="45.819314007321346" lon="13.211542703303586"><ele>4.0</ele><time>2026-05-03T04:31:15.999Z</time></trkpt><trkpt lat="45.81940056798779" lon="13.211496778370394"><ele>4.0</ele><time>2026-05-03T04:31:17.999Z</time></trkpt><trkpt lat="45.819488560079655" lon="13.21146122510664"><ele>4.0</ele><time>2026-05-03T04:31:19.999Z</time></trkpt><trkpt lat="45.819577638749855" lon="13.211458279279567"><ele>3.4999999999999996</ele><time>2026-05-03T04:31:21.999Z</time></trkpt><trkpt lat="45.81965211505441" lon="13.211457925805856"><ele>3.0</ele><time>2026-05-03T04:31:23.999Z</time></trkpt><trkpt lat="45.81972769538935" lon="13.211451108686445"><ele>2.5</ele><time>2026-05-03T04:31:25.999Z</time></trkpt><trkpt lat="45.81980551169668" lon="13.211468910806817"><ele>2.0</ele><time>2026-05-03T04:31:27.999Z</time></trkpt><trkpt lat="45.819892491500035" lon="13.211470961287645"><ele>1.5</ele><time>2026-05-03T04:31:29.999Z</time></trkpt><trkpt lat="45.81997499924929" lon="13.211472461852654"><ele>1.0</ele><time>2026-05-03T04:31:31.999Z</time></trkpt><trkpt lat="45.82005974020233" lon="13.2114778188404"><ele>0.9999999999999999</ele><time>2026-05-03T04:31:33.999Z</time></trkpt><trkpt lat="45.82013910099209" lon="13.211487218251948"><ele>1.0</ele><time>2026-05-03T04:31:35.999Z</time></trkpt><trkpt lat="45.820226493240305" lon="13.211503995658745"><ele>1.0</ele><time>2026-05-03T04:31:37.999Z</time></trkpt><trkpt lat="45.82031086938115" lon="13.21152634579414"><ele>1.0</ele><time>2026-05-03T04:31:39.999Z</time></trkpt><trkpt lat="45.82039431748996" lon="13.211562199668505"><ele>0.9999999999999999</ele><time>2026-05-03T04:31:41.999Z</time></trkpt><trkpt lat="45.820479271789644" lon="13.211594263714076"><ele>1.0</ele><time>2026-05-03T04:31:43.999Z</time></trkpt><trkpt lat="45.820559541060845" lon="13.211627146015768"><ele>1.1666666666666665</ele><time>2026-05-03T04:31:45.999Z</time></trkpt><trkpt lat="45.82064152108506" lon="13.211672088065784"><ele>1.3333333333333333</ele><time>2026-05-03T04:31:47.999Z</time></trkpt><trkpt lat="45.82072110298071" lon="13.211718019773116"><ele>1.5</ele><time>2026-05-03T04:31:49.999Z</time></trkpt><trkpt lat="45.82079693444129" lon="13.211784352882445"><ele>1.6666666666666665</ele><time>2026-05-03T04:31:51.999Z</time></trkpt><trkpt lat="45.820857048451735" lon="13.211875566893843"><ele>1.8333333333333333</ele><time>2026-05-03T04:31:53.999Z</time></trkpt><trkpt lat="45.820915375669756" lon="13.211962007582137"><ele>2.0</ele><time>2026-05-03T04:31:55.999Z</time></trkpt><trkpt lat="45.82098809343262" lon="13.212023034779854"><ele>2.1666666666666665</ele><time>2026-05-03T04:31:57.999Z</time></trkpt><trkpt lat="45.821076335903705" lon="13.212054690002304"><ele>2.333333333333333</ele><time>2026-05-03T04:31:59.999Z</time></trkpt><trkpt lat="45.821165438513894" lon="13.212066111917915"><ele>2.5</ele><time>2026-05-03T04:32:01.999Z</time></trkpt><trkpt lat="45.821258364155696" lon="13.21208631416892"><ele>2.6666666666666665</ele><time>2026-05-03T04:32:03.999Z</time></trkpt><trkpt lat="45.82134056028721" lon="13.212108021964957"><ele>2.8333333333333335</ele><time>2026-05-03T04:32:05.999Z</time></trkpt><trkpt lat="45.821429196888566" lon="13.212132791844443"><ele>3.0</ele><time>2026-05-03T04:32:07.999Z</time></trkpt><trkpt lat="45.82152182393802" lon="13.212155555871998"><ele>3.0</ele><time>2026-05-03T04:32:09.999Z</time></trkpt><trkpt lat="45.82161452912249" lon="13.212183471473752"><ele>3.0</ele><time>2026-05-03T04:32:11.999Z</time></trkpt><trkpt lat="45.821705564792936" lon="13.212206376378568"><ele>3.0</ele><time>2026-05-03T04:32:13.999Z</time></trkpt><trkpt lat="45.821799519307895" lon="13.212230014595313"><ele>3.0</ele><time>2026-05-03T04:32:15.999Z</time></trkpt><trkpt lat="45.821891591414506" lon="13.212249453521363"><ele>3.0</ele><time>2026-05-03T04:32:17.999Z</time></trkpt><trkpt lat="45.821985045063585" lon="13.212273729417696"><ele>3.0</ele><time>2026-05-03T04:32:19.999Z</time></trkpt><trkpt lat="45.822082330485884" lon="13.212288835473114"><ele>3.0</ele><time>2026-05-03T04:32:21.999Z</time></trkpt><trkpt lat="45.82217454020508" lon="13.212299405030654"><ele>3.0</ele><time>2026-05-03T04:32:23.999Z</time></trkpt><trkpt lat="45.822262440076805" lon="13.212298984054883"><ele>3.0</ele><time>2026-05-03T04:32:25.999Z</time></trkpt><trkpt lat="45.82234448107007" lon="13.212299394729481"><ele>3.0</ele><time>2026-05-03T04:32:27.999Z</time></trkpt><trkpt lat="45.822371006711606" lon="13.212422783138425"><ele>3.0</ele><time>2026-05-03T04:32:29.999Z</time></trkpt><trkpt lat="45.82239348110094" lon="13.212554682704289"><ele>3.0</ele><time>2026-05-03T04:32:31.998Z</time></trkpt><trkpt lat="45.822421518237796" lon="13.212683224359088"><ele>3.0</ele><time>2026-05-03T04:32:33.998Z</time></trkpt><trkpt lat="45.8224536743753" lon="13.212811185314086"><ele>3.0</ele><time>2026-05-03T04:32:35.998Z</time></trkpt><trkpt lat="45.82248883155958" lon="13.212934608025442"><ele>3.0</ele><time>2026-05-03T04:32:37.998Z</time></trkpt><trkpt lat="45.82252186932059" lon="13.213066904203641"><ele>3.0</ele><time>2026-05-03T04:32:39.998Z</time></trkpt><trkpt lat="45.82254964785657" lon="13.21320454558791"><ele>3.0</ele><time>2026-05-03T04:32:41.998Z</time></trkpt><trkpt lat="45.822583371636476" lon="13.213337305100287"><ele>3.0</ele><time>2026-05-03T04:32:43.998Z</time></trkpt><trkpt lat="45.8226180899787" lon="13.2134690359624"><ele>3.0</ele><time>2026-05-03T04:32:46Z</time></trkpt><trkpt lat="45.822656669771625" lon="13.213597390306141"><ele>3.0</ele><time>2026-05-03T04:32:48Z</time></trkpt><trkpt lat="45.82268449098218" lon="13.213724528970598"><ele>2.8</ele><time>2026-05-03T04:32:50Z</time></trkpt><trkpt lat="45.82272154390584" lon="13.21385337393846"><ele>2.5999999999999996</ele><time>2026-05-03T04:32:52Z</time></trkpt><trkpt lat="45.82278328202374" lon="13.213935121097098"><ele>2.4000000000000004</ele><time>2026-05-03T04:32:54Z</time></trkpt><trkpt lat="45.822855985439695" lon="13.21395007808051"><ele>2.2</ele><time>2026-05-03T04:32:56Z</time></trkpt><trkpt lat="45.82296541670952" lon="13.21396182966825"><ele>2.0</ele><time>2026-05-03T04:32:58Z</time></trkpt><trkpt lat="45.823065239481416" lon="13.213923154482314"><ele>2.0</ele><time>2026-05-03T04:33:00Z</time></trkpt><trkpt lat="45.823169720307924" lon="13.213893229604235"><ele>2.0</ele><time>2026-05-03T04:33:02Z</time></trkpt><trkpt lat="45.82326873143506" lon="13.213864777488327"><ele>2.0</ele><time>2026-05-03T04:33:04Z</time></trkpt><trkpt lat="45.82336200054856" lon="13.213830763006518"><ele>2.0</ele><time>2026-05-03T04:33:06Z</time></trkpt><trkpt lat="45.82346131529874" lon="13.21380957250979"><ele>2.0</ele><time>2026-05-03T04:33:08Z</time></trkpt><trkpt lat="45.82355842312534" lon="13.213780966524146"><ele>2.0</ele><time>2026-05-03T04:33:09.999Z</time></trkpt><trkpt lat="45.8236556555758" lon="13.21375662070831"><ele>2.0</ele><time>2026-05-03T04:33:11.999Z</time></trkpt><trkpt lat="45.82374664753999" lon="13.213732935853354"><ele>2.0</ele><time>2026-05-03T04:33:13.999Z</time></trkpt><trkpt lat="45.82383906809713" lon="13.213708874211461"><ele>2.0</ele><time>2026-05-03T04:33:15.999Z</time></trkpt><trkpt lat="45.82393648527025" lon="13.213676528946841"><ele>2.0</ele><time>2026-05-03T04:33:17.999Z</time></trkpt><trkpt lat="45.82402859838328" lon="13.21364296552931"><ele>2.0</ele><time>2026-05-03T04:33:19.999Z</time></trkpt><trkpt lat="45.824124087316015" lon="13.213596262349423"><ele>2.0</ele><time>2026-05-03T04:33:21.999Z</time></trkpt><trkpt lat="45.82422128017167" lon="13.213552231522714"><ele>2.0</ele><time>2026-05-03T04:33:23.999Z</time></trkpt><trkpt lat="45.82431975285766" lon="13.213531644114594"><ele>2.0</ele><time>2026-05-03T04:33:25.999Z</time></trkpt><trkpt lat="45.82441448762628" lon="13.213504211764706"><ele>2.0</ele><time>2026-05-03T04:33:27.999Z</time></trkpt><trkpt lat="45.82451259329811" lon="13.213472789843026"><ele>2.2</ele><time>2026-05-03T04:33:29.999Z</time></trkpt><trkpt lat="45.82461286626624" lon="13.2134461484218"><ele>2.4000000000000004</ele><time>2026-05-03T04:33:31.999Z</time></trkpt><trkpt lat="45.82471136918754" lon="13.213419323650037"><ele>2.5999999999999996</ele><time>2026-05-03T04:33:33.999Z</time></trkpt><trkpt lat="45.824810190493615" lon="13.213386657324449"><ele>2.8</ele><time>2026-05-03T04:33:35.999Z</time></trkpt><trkpt lat="45.82490700414446" lon="13.2133672214013"><ele>3.0</ele><time>2026-05-03T04:33:37.999Z</time></trkpt><trkpt lat="45.82500598909131" lon="13.213340356102911"><ele>3.0</ele><time>2026-05-03T04:33:39.999Z</time></trkpt><trkpt lat="45.825099586974254" lon="13.213319960849155"><ele>3.0</ele><time>2026-05-03T04:33:41.999Z</time></trkpt><trkpt lat="45.82519214985839" lon="13.213293261971124"><ele>3.0</ele><time>2026-05-03T04:33:43.999Z</time></trkpt><trkpt lat="45.82529034740977" lon="13.213268461162471"><ele>3.0</ele><time>2026-05-03T04:33:45.999Z</time></trkpt><trkpt lat="45.825384190032736" lon="13.213242457704307"><ele>3.0</ele><time>2026-05-03T04:33:47.999Z</time></trkpt><trkpt lat="45.82547441862869" lon="13.213215568499928"><ele>3.2</ele><time>2026-05-03T04:33:49.999Z</time></trkpt><trkpt lat="45.82556514215316" lon="13.213182130332932"><ele>3.4</ele><time>2026-05-03T04:33:51.999Z</time></trkpt><trkpt lat="45.82565574209085" lon="13.213157030298037"><ele>3.6000000000000005</ele><time>2026-05-03T04:33:53.999Z</time></trkpt><trkpt lat="45.82574710127529" lon="13.2131430325492"><ele>3.8000000000000003</ele><time>2026-05-03T04:33:55.999Z</time></trkpt><trkpt lat="45.82583885416851" lon="13.213109118110443"><ele>4.0</ele><time>2026-05-03T04:33:57.999Z</time></trkpt><trkpt lat="45.825931505822396" lon="13.213084047868408"><ele>4.4</ele><time>2026-05-03T04:33:59.999Z</time></trkpt><trkpt lat="45.82602543482237" lon="13.21303589274873"><ele>4.800000000000001</ele><time>2026-05-03T04:34:01.999Z</time></trkpt><trkpt lat="45.826121358308626" lon="13.212991300923692"><ele>5.199999999999999</ele><time>2026-05-03T04:34:03.999Z</time></trkpt><trkpt lat="45.82621402925379" lon="13.212941823209153"><ele>5.6</ele><time>2026-05-03T04:34:05.999Z</time></trkpt><trkpt lat="45.82630783612718" lon="13.212879828035232"><ele>6.0</ele><time>2026-05-03T04:34:07.999Z</time></trkpt><trkpt lat="45.82639451001533" lon="13.212822594296135"><ele>6.0</ele><time>2026-05-03T04:34:09.999Z</time></trkpt><trkpt lat="45.82648442567567" lon="13.21276220562842"><ele>6.0</ele><time>2026-05-03T04:34:11.999Z</time></trkpt><trkpt lat="45.826565723598385" lon="13.212681572913196"><ele>6.0</ele><time>2026-05-03T04:34:13.999Z</time></trkpt><trkpt lat="45.82664726723118" lon="13.212616567842367"><ele>6.0</ele><time>2026-05-03T04:34:15.999Z</time></trkpt><trkpt lat="45.826730797972864" lon="13.212546551451759"><ele>6.0</ele><time>2026-05-03T04:34:17.999Z</time></trkpt><trkpt lat="45.82681671034135" lon="13.21247876106882"><ele>6.0</ele><time>2026-05-03T04:34:19.999Z</time></trkpt><trkpt lat="45.82690248747952" lon="13.212411328807482"><ele>6.0</ele><time>2026-05-03T04:34:21.999Z</time></trkpt><trkpt lat="45.826991177900766" lon="13.212346918105206"><ele>6.0</ele><time>2026-05-03T04:34:23.999Z</time></trkpt><trkpt lat="45.82708637648972" lon="13.212300751021987"><ele>6.0</ele><time>2026-05-03T04:34:25.999Z</time></trkpt><trkpt lat="45.82718141165327" lon="13.21224944975573"><ele>6.0</ele><time>2026-05-03T04:34:27.999Z</time></trkpt><trkpt lat="45.82726885660361" lon="13.212194332678978"><ele>5.8</ele><time>2026-05-03T04:34:29.999Z</time></trkpt><trkpt lat="45.82736124305104" lon="13.212150310186546"><ele>5.6</ele><time>2026-05-03T04:34:31.999Z</time></trkpt><trkpt lat="45.8274493738945" lon="13.212090887925992"><ele>5.4</ele><time>2026-05-03T04:34:33.999Z</time></trkpt><trkpt lat="45.82753586786373" lon="13.212044665426603"><ele>5.2</ele><time>2026-05-03T04:34:35.999Z</time></trkpt><trkpt lat="45.827625925998255" lon="13.21200217360043"><ele>5.0</ele><time>2026-05-03T04:34:37.999Z</time></trkpt><trkpt lat="45.82771735595741" lon="13.211945079226803"><ele>5.0</ele><time>2026-05-03T04:34:39.999Z</time></trkpt><trkpt lat="45.82781140695908" lon="13.211907846119724"><ele>5.0</ele><time>2026-05-03T04:34:41.998Z</time></trkpt><trkpt lat="45.82790648128837" lon="13.211854183406725"><ele>5.0</ele><time>2026-05-03T04:34:43.998Z</time></trkpt><trkpt lat="45.82799124022445" lon="13.211811327000545"><ele>5.0</ele><time>2026-05-03T04:34:45.998Z</time></trkpt><trkpt lat="45.828081493556724" lon="13.211785738716205"><ele>5.0</ele><time>2026-05-03T04:34:47.998Z</time></trkpt><trkpt lat="45.828164988390604" lon="13.21176207135007"><ele>5.0</ele><time>2026-05-03T04:34:49.998Z</time></trkpt><trkpt lat="45.828245914355534" lon="13.211763054107706"><ele>5.0</ele><time>2026-05-03T04:34:52Z</time></trkpt><trkpt lat="45.828331401783224" lon="13.211785821287464"><ele>5.0</ele><time>2026-05-03T04:34:54Z</time></trkpt><trkpt lat="45.82841128945139" lon="13.211816260225715"><ele>5.0</ele><time>2026-05-03T04:34:56Z</time></trkpt><trkpt lat="45.828509226243405" lon="13.211836785790661"><ele>5.0</ele><time>2026-05-03T04:34:58Z</time></trkpt><trkpt lat="45.828588936383504" lon="13.21187624822767"><ele>5.0</ele><time>2026-05-03T04:35:00Z</time></trkpt><trkpt lat="45.828653469641814" lon="13.211938017374955"><ele>5.2</ele><time>2026-05-03T04:35:02Z</time></trkpt><trkpt lat="45.82872109650974" lon="13.211969875100984"><ele>5.4</ele><time>2026-05-03T04:35:04Z</time></trkpt><trkpt lat="45.828815942088355" lon="13.21202728318748"><ele>5.6</ele><time>2026-05-03T04:35:06Z</time></trkpt><trkpt lat="45.82892687252582" lon="13.21209171891174"><ele>5.8</ele><time>2026-05-03T04:35:08Z</time></trkpt><trkpt lat="45.82905569517708" lon="13.21211591845452"><ele>6.0</ele><time>2026-05-03T04:35:10Z</time></trkpt><trkpt lat="45.829128151800056" lon="13.212117998321652"><ele>6.0</ele><time>2026-05-03T04:35:11Z</time></trkpt><trkpt lat="45.82922344181888" lon="13.212108065552046"><ele>6.0</ele><time>2026-05-03T04:35:12Z</time></trkpt><trkpt lat="45.82930890312984" lon="13.21207804274928"><ele>6.0</ele><time>2026-05-03T04:35:14Z</time></trkpt><trkpt lat="45.829326396213936" lon="13.2119686932134"><ele>6.0</ele><time>2026-05-03T04:35:16Z</time></trkpt><trkpt lat="45.82934229825856" lon="13.211863213709746"><ele>6.0</ele><time>2026-05-03T04:35:18Z</time></trkpt><trkpt lat="45.82935280140626" lon="13.211742059137991"><ele>6.0</ele><time>2026-05-03T04:35:20Z</time></trkpt><trkpt lat="45.829340955006856" lon="13.211864947671788"><ele>6.0</ele><time>2026-05-03T04:35:26.999Z</time></trkpt><trkpt lat="45.829323335914566" lon="13.211978342359037"><ele>6.0</ele><time>2026-05-03T04:35:28.999Z</time></trkpt><trkpt lat="45.829280496062474" lon="13.21208063567794"><ele>6.0</ele><time>2026-05-03T04:35:31.999Z</time></trkpt><trkpt lat="45.82940406870766" lon="13.211981551934484"><ele>6.0</ele><time>2026-05-03T04:35:34.999Z</time></trkpt><trkpt lat="45.829462337609066" lon="13.211941902741287"><ele>6.0</ele><time>2026-05-03T04:35:35.999Z</time></trkpt><trkpt lat="45.82959134369595" lon="13.212222801806153"><ele>6.0</ele><time>2026-05-03T04:35:36.999Z</time></trkpt><trkpt lat="45.82968057484162" lon="13.212242418221983"><ele>6.0</ele><time>2026-05-03T04:35:38.999Z</time></trkpt><trkpt lat="45.829778999376636" lon="13.212257968455459"><ele>6.0</ele><time>2026-05-03T04:35:40.999Z</time></trkpt><trkpt lat="45.82986006922153" lon="13.212278782624642"><ele>6.0</ele><time>2026-05-03T04:35:42.999Z</time></trkpt><trkpt lat="45.82993576907097" lon="13.212279590478909"><ele>6.0</ele><time>2026-05-03T04:35:44.999Z</time></trkpt><trkpt lat="45.83001863020347" lon="13.212315239322917"><ele>6.0</ele><time>2026-05-03T04:35:46.999Z</time></trkpt><trkpt lat="45.83010853660276" lon="13.212368359334958"><ele>6.0</ele><time>2026-05-03T04:35:48.999Z</time></trkpt><trkpt lat="45.830213005462916" lon="13.212379932557896"><ele>6.0</ele><time>2026-05-03T04:35:50.999Z</time></trkpt><trkpt lat="45.83030366784637" lon="13.21238274695391"><ele>6.0</ele><time>2026-05-03T04:35:52.999Z</time></trkpt><trkpt lat="45.83038836233648" lon="13.212381649223508"><ele>6.0</ele><time>2026-05-03T04:35:54.999Z</time></trkpt><trkpt lat="45.83047363753377" lon="13.212369419397934"><ele>6.0</ele><time>2026-05-03T04:35:56.999Z</time></trkpt><trkpt lat="45.83056408108266" lon="13.212372637036975"><ele>6.0</ele><time>2026-05-03T04:35:58.999Z</time></trkpt><trkpt lat="45.83066215980575" lon="13.212395817388865"><ele>6.0</ele><time>2026-05-03T04:36:00.999Z</time></trkpt><trkpt lat="45.83075349315532" lon="13.212378370165707"><ele>6.0</ele><time>2026-05-03T04:36:02.999Z</time></trkpt><trkpt lat="45.830846350890745" lon="13.212363938144561"><ele>6.0</ele><time>2026-05-03T04:36:04.999Z</time></trkpt><trkpt lat="45.8309361243639" lon="13.21234350498353"><ele>6.0</ele><time>2026-05-03T04:36:06.999Z</time></trkpt><trkpt lat="45.83103253928283" lon="13.212326301691114"><ele>6.199999999999999</ele><time>2026-05-03T04:36:08.999Z</time></trkpt><trkpt lat="45.831138337368735" lon="13.212330115591069"><ele>6.3999999999999995</ele><time>2026-05-03T04:36:10.999Z</time></trkpt><trkpt lat="45.831233449090206" lon="13.212301541269575"><ele>6.6</ele><time>2026-05-03T04:36:12.999Z</time></trkpt><trkpt lat="45.83132597526262" lon="13.212302562908599"><ele>6.8</ele><time>2026-05-03T04:36:14.999Z</time></trkpt><trkpt lat="45.83140169203764" lon="13.212247668877827"><ele>7.0</ele><time>2026-05-03T04:36:16.999Z</time></trkpt><trkpt lat="45.831483965644" lon="13.212169639739981"><ele>7.0</ele><time>2026-05-03T04:36:18.999Z</time></trkpt><trkpt lat="45.83156383793165" lon="13.212101003156029"><ele>6.999999999999999</ele><time>2026-05-03T04:36:20.999Z</time></trkpt><trkpt lat="45.831655992078474" lon="13.21205370594638"><ele>6.999999999999999</ele><time>2026-05-03T04:36:22.999Z</time></trkpt><trkpt lat="45.83173591907967" lon="13.212014245621923"><ele>7.0</ele><time>2026-05-03T04:36:24.999Z</time></trkpt><trkpt lat="45.83182707336772" lon="13.212027029804654"><ele>7.0</ele><time>2026-05-03T04:36:26.999Z</time></trkpt><trkpt lat="45.83192060523489" lon="13.212105233221891"><ele>6.6</ele><time>2026-05-03T04:36:28.999Z</time></trkpt><trkpt lat="45.83199490502288" lon="13.21222313895747"><ele>6.199999999999999</ele><time>2026-05-03T04:36:30.999Z</time></trkpt><trkpt lat="45.8320398749546" lon="13.212366840155173"><ele>5.8</ele><time>2026-05-03T04:36:32.999Z</time></trkpt><trkpt lat="45.8320609362336" lon="13.212497950817518"><ele>5.4</ele><time>2026-05-03T04:36:34.999Z</time></trkpt><trkpt lat="45.83209734100689" lon="13.212623690910657"><ele>5.0</ele><time>2026-05-03T04:36:36.999Z</time></trkpt><trkpt lat="45.83214248619711" lon="13.212764355985579"><ele>5.0</ele><time>2026-05-03T04:36:38.999Z</time></trkpt><trkpt lat="45.83218925256219" lon="13.212901904144747"><ele>5.0</ele><time>2026-05-03T04:36:40.999Z</time></trkpt><trkpt lat="45.83222996477039" lon="13.213043305851755"><ele>5.0</ele><time>2026-05-03T04:36:42.999Z</time></trkpt><trkpt lat="45.83227017760599" lon="13.213169802371365"><ele>5.0</ele><time>2026-05-03T04:36:44.999Z</time></trkpt><trkpt lat="45.83231633498958" lon="13.21329693375987"><ele>5.0</ele><time>2026-05-03T04:36:46.999Z</time></trkpt><trkpt lat="45.83235632144871" lon="13.213433271425268"><ele>5.0</ele><time>2026-05-03T04:36:48.999Z</time></trkpt><trkpt lat="45.83239581159355" lon="13.213567286828656"><ele>5.0</ele><time>2026-05-03T04:36:50.999Z</time></trkpt><trkpt lat="45.83243927587918" lon="13.213695420066328"><ele>5.0</ele><time>2026-05-03T04:36:52.999Z</time></trkpt><trkpt lat="45.832489560666644" lon="13.213822127729342"><ele>5.0</ele><time>2026-05-03T04:36:54.999Z</time></trkpt><trkpt lat="45.832538055619466" lon="13.213933756944702"><ele>5.0</ele><time>2026-05-03T04:36:56.998Z</time></trkpt><trkpt lat="45.832590729859206" lon="13.214032166857516"><ele>5.0</ele><time>2026-05-03T04:36:59Z</time></trkpt><trkpt lat="45.83265236435639" lon="13.214120009329273"><ele>5.0</ele><time>2026-05-03T04:37:01Z</time></trkpt><trkpt lat="45.83273034729185" lon="13.214191719463768"><ele>5.0</ele><time>2026-05-03T04:37:03Z</time></trkpt><trkpt lat="45.8328057385966" lon="13.214266690556885"><ele>5.0</ele><time>2026-05-03T04:37:05Z</time></trkpt><trkpt lat="45.83286896628907" lon="13.214371946130205"><ele>5.0</ele><time>2026-05-03T04:37:07Z</time></trkpt><trkpt lat="45.83291506289928" lon="13.214461384733623"><ele>5.0</ele><time>2026-05-03T04:37:09Z</time></trkpt><trkpt lat="45.83297224243386" lon="13.214531084270314"><ele>5.0</ele><time>2026-05-03T04:37:11Z</time></trkpt><trkpt lat="45.83301943177749" lon="13.214608595965386"><ele>5.0</ele><time>2026-05-03T04:37:13Z</time></trkpt><trkpt lat="45.83306427104046" lon="13.214693690446238"><ele>5.0</ele><time>2026-05-03T04:37:15Z</time></trkpt><trkpt lat="45.833106334110845" lon="13.21478871648342"><ele>5.0</ele><time>2026-05-03T04:37:17Z</time></trkpt><trkpt lat="45.83314322706408" lon="13.214883158324067"><ele>5.0</ele><time>2026-05-03T04:37:19Z</time></trkpt><trkpt lat="45.83317691987363" lon="13.214976986006032"><ele>5.0</ele><time>2026-05-03T04:37:21Z</time></trkpt><trkpt lat="45.83320789696583" lon="13.215068473781987"><ele>5.0</ele><time>2026-05-03T04:37:23Z</time></trkpt><trkpt lat="45.833235838257735" lon="13.215166022453385"><ele>5.0</ele><time>2026-05-03T04:37:25Z</time></trkpt><trkpt lat="45.83325730746983" lon="13.215264024936003"><ele>5.0</ele><time>2026-05-03T04:37:27Z</time></trkpt><trkpt lat="45.83329219648421" lon="13.215366244054865"><ele>5.0</ele><time>2026-05-03T04:37:29Z</time></trkpt><trkpt lat="45.833332732137954" lon="13.215462355479687"><ele>5.0</ele><time>2026-05-03T04:37:31Z</time></trkpt><trkpt lat="45.83339267925244" lon="13.215544730619374"><ele>5.0</ele><time>2026-05-03T04:37:33Z</time></trkpt><trkpt lat="45.83344193089429" lon="13.215629383731097"><ele>5.0</ele><time>2026-05-03T04:37:35Z</time></trkpt><trkpt lat="45.83343248903056" lon="13.215755185744314"><ele>5.0</ele><time>2026-05-03T04:37:36.999Z</time></trkpt><trkpt lat="45.833402858943344" lon="13.21584488327317"><ele>5.0</ele><time>2026-05-03T04:37:38.999Z</time></trkpt><trkpt lat="45.83340196052544" lon="13.215943345577505"><ele>5.0</ele><time>2026-05-03T04:37:40.999Z</time></trkpt><trkpt lat="45.83338590928644" lon="13.216065743494047"><ele>5.0</ele><time>2026-05-03T04:37:43.999Z</time></trkpt><trkpt lat="45.83344130081012" lon="13.21612371618217"><ele>5.0</ele><time>2026-05-03T04:37:46.999Z</time></trkpt><trkpt lat="45.83350745905436" lon="13.216112862267364"><ele>5.0</ele><time>2026-05-03T04:37:48.999Z</time></trkpt><trkpt lat="45.83357153353706" lon="13.216120959826771"><ele>5.0</ele><time>2026-05-03T04:37:50.999Z</time></trkpt><trkpt lat="45.833659100002876" lon="13.216154034656931"><ele>5.0</ele><time>2026-05-03T04:37:53.999Z</time></trkpt><trkpt lat="45.83373260634156" lon="13.21616226135521"><ele>5.0</ele><time>2026-05-03T04:37:55.999Z</time></trkpt><trkpt lat="45.83380780446347" lon="13.216186121515847"><ele>5.0</ele><time>2026-05-03T04:37:57.999Z</time></trkpt><trkpt lat="45.833880047743975" lon="13.216213862741753"><ele>5.0</ele><time>2026-05-03T04:37:59.999Z</time></trkpt><trkpt lat="45.83397720803513" lon="13.216225560866084"><ele>5.0</ele><time>2026-05-03T04:38:02.999Z</time></trkpt><trkpt lat="45.834044932292954" lon="13.216254900607545"><ele>5.0</ele><time>2026-05-03T04:38:05.999Z</time></trkpt></trkseg></trk></gpx>